createdAt,value
2022-11-03T00:00:12.741Z,16.23
2022-11-03T00:01:53.404Z,16.19
2022-11-03T00:03:25.048Z,16.12
2022-11-03T00:04:56.559Z,16.08
2022-11-03T00:06:28.167Z,16.02
2022-11-03T00:08:01.742Z,15.96
2022-11-03T00:09:33.618Z,15.86
2022-11-03T00:11:09.489Z,15.82
2022-11-03T00:12:41.039Z,15.76
2022-11-03T00:14:13.003Z,15.77
2022-11-03T00:15:50.517Z,15.76
2022-11-03T00:17:22.103Z,15.74
2022-11-03T00:18:53.702Z,15.72
2022-11-03T00:20:25.391Z,15.71
2022-11-03T00:21:59.488Z,15.70
2022-11-03T00:23:33.787Z,15.66
2022-11-03T00:25:05.584Z,15.63
2022-11-03T00:26:37.683Z,15.59
2022-11-03T00:28:09.356Z,15.62
2022-11-03T00:29:41.018Z,15.63
2022-11-03T00:31:13.872Z,15.63
2022-11-03T00:32:45.533Z,15.59
2022-11-03T00:34:17.144Z,15.59
2022-11-03T00:35:48.678Z,15.57
2022-11-03T00:37:20.205Z,15.57
2022-11-03T00:38:51.860Z,15.56
2022-11-03T00:40:23.379Z,15.57
2022-11-03T00:41:55.008Z,15.56
2022-11-03T00:43:26.882Z,15.54
2022-11-03T00:44:58.489Z,15.52
2022-11-03T00:46:30.754Z,15.48
2022-11-03T00:48:21.081Z,15.44
2022-11-03T00:49:52.590Z,15.44
2022-11-03T00:51:24.986Z,15.39
2022-11-03T00:52:56.537Z,15.36
2022-11-03T00:54:28.048Z,15.35
2022-11-03T00:55:59.727Z,15.35
2022-11-03T00:57:31.219Z,15.34
2022-11-03T00:59:03.927Z,15.34
2022-11-03T01:00:35.463Z,15.35
2022-11-03T01:02:07.036Z,15.35
2022-11-03T01:03:39.294Z,15.37
2022-11-03T01:05:29.564Z,15.38
2022-11-03T01:07:01.250Z,15.35
2022-11-03T01:08:34.179Z,15.34
2022-11-03T01:10:07.637Z,15.33
2022-11-03T01:11:45.226Z,15.32
2022-11-03T01:13:16.711Z,15.31
2022-11-03T01:14:49.468Z,15.28
2022-11-03T01:16:21.170Z,15.24
2022-11-03T01:17:52.948Z,15.21
2022-11-03T01:19:25.452Z,15.21
2022-11-03T01:20:57.500Z,15.20
2022-11-03T01:22:29.132Z,15.21
2022-11-03T01:24:01.918Z,15.24
2022-11-03T01:25:35.468Z,15.22
2022-11-03T01:27:08.206Z,15.22
2022-11-03T01:28:40.670Z,15.14
2022-11-03T01:30:12.327Z,15.08
2022-11-03T01:31:43.972Z,15.05
2022-11-03T01:33:15.585Z,15.01
2022-11-03T01:34:47.590Z,14.99
2022-11-03T01:36:19.519Z,14.97
2022-11-03T01:37:51.504Z,15.00
2022-11-03T01:39:23.124Z,15.06
2022-11-03T01:40:54.707Z,15.12
2022-11-03T01:42:26.238Z,15.16
2022-11-03T01:44:09.758Z,15.18
2022-11-03T01:45:41.247Z,15.18
2022-11-03T01:47:19.644Z,15.18
2022-11-03T01:49:01.200Z,15.18
2022-11-03T01:50:32.734Z,15.24
2022-11-03T01:52:09.763Z,15.25
2022-11-03T01:53:42.920Z,15.28
2022-11-03T01:55:16.366Z,15.33
2022-11-03T01:56:48.002Z,15.36
2022-11-03T01:58:20.910Z,15.36
2022-11-03T01:59:52.437Z,15.36
2022-11-03T02:01:24.399Z,15.39
2022-11-03T02:02:56.138Z,15.34
2022-11-03T02:04:29.445Z,15.33
2022-11-03T02:06:01.560Z,15.28
2022-11-03T02:07:59.101Z,15.24
2022-11-03T02:09:30.757Z,15.20
2022-11-03T02:11:22.198Z,15.14
2022-11-03T02:12:54.036Z,15.04
2022-11-03T02:14:25.570Z,14.98
2022-11-03T02:15:58.169Z,14.95
2022-11-03T02:17:29.873Z,14.92
2022-11-03T02:19:01.867Z,14.93
2022-11-03T02:20:33.482Z,14.94
2022-11-03T02:22:14.404Z,14.93
2022-11-03T02:23:47.999Z,14.88
2022-11-03T02:25:34.519Z,14.82
2022-11-03T02:27:06.064Z,14.78
2022-11-03T02:28:37.560Z,14.80
2022-11-03T02:30:09.882Z,14.81
2022-11-03T02:31:42.485Z,14.83
2022-11-03T02:33:32.614Z,14.82
2022-11-03T02:35:33.604Z,14.78
2022-11-03T02:37:15.770Z,14.66
2022-11-03T02:38:54.034Z,14.61
2022-11-03T02:40:30.137Z,14.59
2022-11-03T02:42:01.719Z,14.53
2022-11-03T02:43:33.270Z,14.50
2022-11-03T02:45:05.808Z,14.48
2022-11-03T02:46:37.598Z,14.49
2022-11-03T02:48:09.152Z,14.49
2022-11-03T02:49:47.327Z,14.46
2022-11-03T02:51:18.923Z,14.42
2022-11-03T02:52:52.666Z,14.41
2022-11-03T02:54:26.761Z,14.37
2022-11-03T02:56:06.273Z,14.30
2022-11-03T02:57:39.583Z,14.26
2022-11-03T02:59:14.959Z,14.21
2022-11-03T03:00:58.737Z,14.15
2022-11-03T03:02:33.468Z,14.10
2022-11-03T03:04:06.662Z,14.09
2022-11-03T03:05:38.446Z,14.06
2022-11-03T03:07:26.908Z,14.01
2022-11-03T03:09:01.650Z,13.95
2022-11-03T03:10:34.894Z,13.91
2022-11-03T03:12:06.591Z,13.85
2022-11-03T03:13:38.176Z,13.80
2022-11-03T03:15:09.885Z,13.74
2022-11-03T03:16:47.352Z,13.68
2022-11-03T03:18:26.520Z,13.62
2022-11-03T03:20:02.102Z,13.59
2022-11-03T03:21:35.192Z,13.56
2022-11-03T03:23:19.643Z,13.50
2022-11-03T03:24:56.985Z,13.50
2022-11-03T03:26:29.857Z,13.52
2022-11-03T03:28:03.139Z,13.59
2022-11-03T03:29:39.519Z,13.60
2022-11-03T03:31:12.044Z,13.61
2022-11-03T03:32:44.919Z,13.62
2022-11-03T03:34:33.788Z,13.64
2022-11-03T03:36:06.842Z,13.67
2022-11-03T03:37:39.536Z,13.71
2022-11-03T03:39:11.227Z,13.77
2022-11-03T03:40:43.138Z,13.76
2022-11-03T03:42:14.916Z,13.74
2022-11-03T03:43:46.758Z,13.72
2022-11-03T03:45:18.766Z,13.66
2022-11-03T03:46:56.105Z,13.62
2022-11-03T03:48:27.689Z,13.52
2022-11-03T03:49:59.286Z,13.43
2022-11-03T03:51:30.809Z,13.37
2022-11-03T03:53:03.133Z,13.29
2022-11-03T03:54:34.703Z,13.26
2022-11-03T03:56:06.361Z,13.20
2022-11-03T03:57:37.916Z,13.17
2022-11-03T03:59:09.503Z,13.14
2022-11-03T04:00:41.436Z,13.14
2022-11-03T04:02:13.153Z,13.10
2022-11-03T04:03:44.787Z,13.04
2022-11-03T04:05:16.458Z,13.00
2022-11-03T04:06:48.285Z,12.95
2022-11-03T04:08:19.892Z,12.92
2022-11-03T04:09:51.481Z,12.88
2022-11-03T04:11:41.751Z,12.84
2022-11-03T04:13:31.880Z,12.82
2022-11-03T04:15:22.329Z,12.87
2022-11-03T04:17:12.608Z,12.83
2022-11-03T04:19:02.953Z,12.81
2022-11-03T04:20:53.380Z,12.82
2022-11-03T04:22:26.844Z,12.79
2022-11-03T04:24:00.421Z,12.79
2022-11-03T04:25:32.470Z,12.83
2022-11-03T04:27:30.205Z,12.86
2022-11-03T04:29:01.875Z,12.90
2022-11-03T04:30:33.627Z,12.91
2022-11-03T04:32:11.178Z,12.99
2022-11-03T04:33:42.976Z,13.04
2022-11-03T04:35:15.520Z,13.03
2022-11-03T04:36:50.178Z,13.05
2022-11-03T04:38:22.934Z,13.04
2022-11-03T04:40:02.734Z,13.06
2022-11-03T04:41:34.759Z,13.00
2022-11-03T04:43:10.540Z,12.94
2022-11-03T04:44:42.166Z,12.91
2022-11-03T04:46:16.499Z,12.83
2022-11-03T04:47:48.196Z,12.79
2022-11-03T04:49:22.906Z,12.77
2022-11-03T04:50:57.582Z,12.75
2022-11-03T04:52:29.260Z,12.76
2022-11-03T04:54:07.590Z,12.76
2022-11-03T04:55:42.026Z,12.77
2022-11-03T04:57:14.455Z,12.77
2022-11-03T04:58:48.383Z,12.71
2022-11-03T05:00:20.142Z,12.72
2022-11-03T05:01:51.863Z,12.76
2022-11-03T05:03:24.421Z,12.73
2022-11-03T05:04:56.117Z,12.73
2022-11-03T05:06:28.188Z,12.75
2022-11-03T05:07:59.723Z,12.75
2022-11-03T05:09:31.255Z,12.77
2022-11-03T05:11:05.558Z,12.77
2022-11-03T05:12:37.259Z,12.73
2022-11-03T05:14:20.871Z,12.69
2022-11-03T05:15:53.282Z,12.73
2022-11-03T05:17:28.150Z,12.76
2022-11-03T05:18:59.762Z,12.76
2022-11-03T05:20:36.011Z,12.80
2022-11-03T05:22:08.875Z,12.82
2022-11-03T05:23:41.160Z,12.83
2022-11-03T05:25:31.155Z,12.82
2022-11-03T05:27:02.741Z,12.81
2022-11-03T05:28:35.823Z,12.77
2022-11-03T05:30:12.973Z,12.75
2022-11-03T05:31:44.494Z,12.79
2022-11-03T05:33:18.883Z,12.83
2022-11-03T05:34:51.418Z,12.86
2022-11-03T05:36:23.945Z,12.86
2022-11-03T05:37:55.510Z,12.82
2022-11-03T05:39:27.135Z,12.83
2022-11-03T05:40:59.163Z,12.84
2022-11-03T05:42:34.383Z,12.86
2022-11-03T05:44:27.069Z,12.91
2022-11-03T05:45:58.984Z,12.96
2022-11-03T05:47:35.240Z,12.97
2022-11-03T05:49:06.920Z,13.03
2022-11-03T05:50:39.214Z,13.08
2022-11-03T05:52:14.193Z,13.17
2022-11-03T05:53:46.699Z,13.23
2022-11-03T05:55:22.983Z,13.31
2022-11-03T05:56:55.814Z,13.37
2022-11-03T05:58:37.172Z,13.48
2022-11-03T06:00:20.090Z,13.59
2022-11-03T06:01:52.047Z,13.72
2022-11-03T06:03:25.314Z,13.85
2022-11-03T06:04:56.921Z,13.96
2022-11-03T06:06:32.210Z,14.08
2022-11-03T06:08:06.890Z,14.20
2022-11-03T06:09:38.630Z,14.30
2022-11-03T06:11:10.512Z,14.39
2022-11-03T06:12:42.675Z,14.48
2022-11-03T06:14:24.683Z,14.57
2022-11-03T06:16:02.057Z,14.64
2022-11-03T06:17:34.249Z,14.70
2022-11-03T06:19:20.542Z,14.68
2022-11-03T06:20:53.440Z,14.75
2022-11-03T06:22:27.538Z,14.83
2022-11-03T06:23:59.094Z,14.99
2022-11-03T06:25:31.898Z,15.12
2022-11-03T06:27:04.112Z,15.24
2022-11-03T06:28:37.201Z,15.35
2022-11-03T06:30:28.810Z,15.45
2022-11-03T06:32:00.407Z,15.56
2022-11-03T06:33:35.176Z,15.58
2022-11-03T06:35:08.819Z,15.60
2022-11-03T06:36:40.492Z,15.71
2022-11-03T06:38:14.086Z,15.81
2022-11-03T06:39:46.012Z,15.87
2022-11-03T06:41:20.435Z,15.78
2022-11-03T06:42:52.644Z,15.72
2022-11-03T06:44:25.470Z,15.80
2022-11-03T06:46:00.224Z,15.93
2022-11-03T06:47:32.746Z,16.01
2022-11-03T06:49:19.842Z,16.11
2022-11-03T06:50:51.596Z,16.21
2022-11-03T06:52:30.120Z,16.26
2022-11-03T06:54:01.791Z,16.23
2022-11-03T06:55:33.528Z,16.26
2022-11-03T06:57:07.818Z,16.34
2022-11-03T06:58:39.504Z,16.38
2022-11-03T07:00:32.848Z,16.39
2022-11-03T07:02:05.956Z,16.42
2022-11-03T07:03:38.205Z,16.47
2022-11-03T07:05:16.576Z,16.45
2022-11-03T07:06:53.593Z,16.49
2022-11-03T07:08:30.292Z,16.49
2022-11-03T07:10:01.869Z,16.50
2022-11-03T07:11:52.980Z,16.52
2022-11-03T07:13:25.369Z,16.62
2022-11-03T07:14:59.100Z,16.72
2022-11-03T07:16:34.373Z,16.76
2022-11-03T07:18:13.417Z,16.79
2022-11-03T07:19:45.363Z,16.81
2022-11-03T07:21:23.503Z,16.82
2022-11-03T07:22:55.144Z,16.89
2022-11-03T07:24:30.244Z,16.96
2022-11-03T07:26:01.765Z,17.00
2022-11-03T07:27:35.533Z,17.05
2022-11-03T07:29:09.130Z,17.12
2022-11-03T07:30:40.686Z,17.16
2022-11-03T07:32:32.464Z,17.19
2022-11-03T07:34:05.728Z,17.26
2022-11-03T07:36:08.499Z,17.32
2022-11-03T07:37:29.633Z,17.42
2022-11-03T07:39:01.330Z,17.51
2022-11-03T07:40:34.206Z,17.57
2022-11-03T07:42:34.757Z,17.63
2022-11-03T07:44:08.602Z,17.73
2022-11-03T07:45:41.912Z,17.77
2022-11-03T07:47:18.636Z,17.85
2022-11-03T07:48:57.100Z,17.88
2022-11-03T07:50:28.747Z,17.87
2022-11-03T07:52:00.462Z,17.89
2022-11-03T07:53:36.044Z,17.93
2022-11-03T07:55:09.300Z,18.04
2022-11-03T07:56:45.392Z,18.14
2022-11-03T07:58:28.446Z,18.30
2022-11-03T08:00:11.025Z,18.44
2022-11-03T08:01:43.850Z,18.63
2022-11-03T08:03:22.048Z,18.77
2022-11-03T08:04:53.700Z,18.89
2022-11-03T08:06:25.356Z,18.97
2022-11-03T08:07:56.978Z,19.08
2022-11-03T08:09:28.512Z,19.18
2022-11-03T08:11:02.064Z,19.29
2022-11-03T08:12:33.827Z,19.39
2022-11-03T08:14:05.344Z,19.48
2022-11-03T08:15:37.029Z,19.52
2022-11-03T08:17:08.698Z,19.59
2022-11-03T08:18:40.370Z,19.67
2022-11-03T08:20:12.072Z,19.77
2022-11-03T08:21:43.791Z,19.82
2022-11-03T08:23:31.225Z,19.88
2022-11-03T08:25:03.211Z,20.03
2022-11-03T08:26:35.059Z,20.11
2022-11-03T08:28:06.663Z,20.19
2022-11-03T08:29:38.194Z,20.27
2022-11-03T08:31:13.044Z,20.30
2022-11-03T08:32:45.001Z,20.38
2022-11-03T08:34:16.702Z,20.44
2022-11-03T08:35:48.347Z,20.46
2022-11-03T08:37:20.002Z,20.45
2022-11-03T08:38:51.801Z,20.55
2022-11-03T08:40:23.405Z,20.65
2022-11-03T08:41:54.943Z,20.75
2022-11-03T08:43:26.671Z,20.83
2022-11-03T08:44:59.326Z,20.90
2022-11-03T08:46:30.906Z,20.90
2022-11-03T08:48:02.549Z,20.85
2022-11-03T08:49:34.225Z,20.90
2022-11-03T08:51:06.867Z,20.98
2022-11-03T08:52:38.542Z,21.02
2022-11-03T08:54:10.259Z,20.99
2022-11-03T08:55:41.854Z,20.99
2022-11-03T08:57:13.492Z,21.06
2022-11-03T08:58:45.322Z,21.09
2022-11-03T09:00:17.278Z,21.13
2022-11-03T09:01:49.000Z,21.24
2022-11-03T09:03:21.021Z,21.32
2022-11-03T09:04:52.604Z,21.41
2022-11-03T09:06:24.732Z,21.54
2022-11-03T09:11:40.323Z,21.49
2022-11-03T09:13:11.852Z,21.41
2022-11-03T09:14:43.439Z,21.29
2022-11-03T09:16:15.035Z,21.24
2022-11-03T09:17:46.590Z,21.28
2022-11-03T09:19:18.254Z,21.33
2022-11-03T09:20:50.392Z,21.44
2022-11-03T09:22:23.168Z,21.46
2022-11-03T09:23:54.981Z,21.54
2022-11-03T09:25:26.607Z,21.70
2022-11-03T09:27:02.121Z,21.89
2022-11-03T09:28:34.178Z,21.99
2022-11-03T09:30:13.376Z,22.02
2022-11-03T09:31:45.556Z,22.15
2022-11-03T09:33:17.229Z,22.23
2022-11-03T09:34:48.835Z,22.30
2022-11-03T09:36:20.557Z,22.37
2022-11-03T09:37:52.957Z,22.51
2022-11-03T09:39:25.052Z,22.57
2022-11-03T09:40:57.057Z,22.49
2022-11-03T09:42:28.595Z,22.52
2022-11-03T09:44:00.609Z,22.67
2022-11-03T09:45:32.830Z,22.76
2022-11-03T09:47:04.699Z,22.85
2022-11-03T09:48:36.395Z,22.97
2022-11-03T09:50:11.779Z,23.01
2022-11-03T09:51:43.627Z,23.02
2022-11-03T09:53:15.273Z,23.12
2022-11-03T09:54:46.984Z,23.24
2022-11-03T09:56:19.764Z,23.32
2022-11-03T09:58:01.009Z,23.45
2022-11-03T09:59:32.506Z,23.60
2022-11-03T10:01:04.395Z,23.69
2022-11-03T10:02:36.265Z,23.66
2022-11-03T10:04:08.689Z,23.73
2022-11-03T10:05:40.387Z,23.83
2022-11-03T10:07:11.908Z,23.95
2022-11-03T10:08:43.673Z,24.05
2022-11-03T10:10:15.766Z,24.01
2022-11-03T10:11:47.354Z,24.11
2022-11-03T10:13:23.800Z,24.21
2022-11-03T10:14:55.481Z,24.23
2022-11-03T10:16:27.070Z,24.24
2022-11-03T10:17:58.646Z,24.31
2022-11-03T10:19:32.476Z,24.42
2022-11-03T10:21:05.489Z,24.54
2022-11-03T10:22:40.878Z,24.60
2022-11-03T10:24:13.028Z,24.75
2022-11-03T10:25:44.993Z,24.87
2022-11-03T10:27:23.178Z,25.03
2022-11-03T10:29:11.861Z,25.13
2022-11-03T10:31:10.192Z,25.38
2022-11-03T10:32:41.666Z,25.62
2022-11-03T10:34:32.063Z,25.70
2022-11-03T10:36:15.907Z,25.78
2022-11-03T10:37:47.426Z,25.86
2022-11-03T10:39:29.009Z,25.95
2022-11-03T10:41:11.129Z,26.04
2022-11-03T10:42:43.035Z,26.06
2022-11-03T10:44:14.711Z,26.03
2022-11-03T10:45:46.405Z,26.06
2022-11-03T10:47:24.425Z,26.03
2022-11-03T10:50:42.874Z,26.22
2022-11-03T10:52:20.724Z,26.20
2022-11-03T10:53:52.382Z,26.17
2022-11-03T10:55:25.986Z,26.28
2022-11-03T10:56:58.390Z,26.44
2022-11-03T10:58:30.375Z,26.63
2022-11-03T11:00:02.372Z,26.80
2022-11-03T11:01:34.095Z,26.89
2022-11-03T11:03:06.480Z,26.92
2022-11-03T11:04:38.757Z,26.98
2022-11-03T11:06:27.006Z,26.97
2022-11-03T11:07:58.931Z,26.77
2022-11-03T11:09:30.562Z,26.46
2022-11-03T11:11:06.469Z,26.46
2022-11-03T11:12:38.306Z,26.47
2022-11-03T11:14:28.442Z,26.55
2022-11-03T11:16:00.608Z,26.63
2022-11-03T11:17:38.423Z,26.68
2022-11-03T11:19:10.135Z,26.62
2022-11-03T11:20:41.697Z,26.64
2022-11-03T11:22:14.132Z,26.74
2022-11-03T11:23:46.165Z,26.92
2022-11-03T11:25:18.099Z,27.07
2022-11-03T11:26:50.931Z,27.15
2022-11-03T11:28:22.685Z,27.21
2022-11-03T11:29:54.341Z,27.23
2022-11-03T11:31:32.611Z,27.30
2022-11-03T11:33:14.243Z,27.28
2022-11-03T11:34:45.818Z,27.25
2022-11-03T11:36:24.247Z,27.22
2022-11-03T11:37:55.943Z,27.22
2022-11-03T11:39:27.828Z,27.23
2022-11-03T11:40:59.534Z,27.24
2022-11-03T11:42:32.607Z,27.31
2022-11-03T11:44:26.778Z,27.46
2022-11-03T11:46:17.438Z,27.51
2022-11-03T11:47:49.594Z,27.55
2022-11-03T11:49:21.265Z,27.60
2022-11-03T11:50:52.847Z,27.63
2022-11-03T11:52:24.469Z,27.63
2022-11-03T11:54:16.515Z,27.60
2022-11-03T11:55:49.276Z,27.53
2022-11-03T11:57:21.652Z,27.62
2022-11-03T11:58:56.541Z,27.67
2022-11-03T12:00:29.576Z,27.77
2022-11-03T12:02:01.232Z,27.85
2022-11-03T12:03:34.429Z,27.95
2022-11-03T12:05:07.946Z,28.03
2022-11-03T12:06:40.174Z,28.15
2022-11-03T12:08:18.825Z,28.20
2022-11-03T12:09:50.649Z,28.24
2022-11-03T12:11:45.451Z,28.29
2022-11-03T12:13:38.104Z,28.35
2022-11-03T12:15:28.286Z,28.40
2022-11-03T12:17:19.874Z,28.49
2022-11-03T12:18:51.538Z,28.47
2022-11-03T12:20:36.207Z,28.56
2022-11-03T12:22:29.758Z,28.57
2022-11-03T12:24:01.383Z,28.67
2022-11-03T12:25:33.732Z,28.61
2022-11-03T12:27:21.299Z,28.38
2022-11-03T12:28:53.433Z,28.45
2022-11-03T12:30:24.972Z,28.53
2022-11-03T12:31:56.606Z,28.61
2022-11-03T12:33:28.498Z,28.64
2022-11-03T12:35:00.365Z,28.60
2022-11-03T12:36:32.434Z,28.51
2022-11-03T12:38:04.293Z,28.53
2022-11-03T12:39:35.943Z,28.58
2022-11-03T12:41:22.781Z,28.67
2022-11-03T12:42:54.327Z,28.78
2022-11-03T12:44:26.068Z,28.89
2022-11-03T12:45:57.757Z,29.07
2022-11-03T12:47:29.342Z,29.23
2022-11-03T12:49:00.962Z,29.42
2022-11-03T12:50:32.722Z,29.54
2022-11-03T12:52:08.300Z,29.57
2022-11-03T12:53:41.065Z,29.56
2022-11-03T12:55:12.878Z,29.58
2022-11-03T12:56:44.750Z,29.55
2022-11-03T12:58:16.266Z,29.39
2022-11-03T12:59:47.956Z,29.39
2022-11-03T13:01:19.788Z,29.41
2022-11-03T13:02:52.031Z,29.39
2022-11-03T13:04:23.738Z,29.41
2022-11-03T13:05:56.347Z,29.39
2022-11-03T13:07:33.479Z,29.36
2022-11-03T13:09:06.321Z,29.35
2022-11-03T13:10:38.020Z,29.35
2022-11-03T13:12:30.384Z,29.34
2022-11-03T13:14:02.014Z,29.25
2022-11-03T13:15:33.608Z,29.19
2022-11-03T13:17:05.298Z,29.17
2022-11-03T13:18:36.993Z,29.12
2022-11-03T13:21:45.648Z,29.00
2022-11-03T13:23:20.336Z,29.01
2022-11-03T13:24:54.617Z,28.86
2022-11-03T13:26:26.154Z,28.91
2022-11-03T13:27:57.994Z,28.99
2022-11-03T13:29:34.140Z,28.95
2022-11-03T13:31:07.076Z,28.95
2022-11-03T13:32:38.687Z,28.94
2022-11-03T13:34:10.336Z,28.92
2022-11-03T13:35:42.162Z,28.89
2022-11-03T13:37:13.842Z,28.88
2022-11-03T13:38:45.549Z,28.88
2022-11-03T13:42:09.210Z,28.90
2022-11-03T13:43:40.761Z,28.83
2022-11-03T13:45:13.115Z,28.84
2022-11-03T13:46:44.663Z,28.83
2022-11-03T13:49:21.519Z,28.83
2022-11-03T13:50:15.203Z,28.83
2022-11-03T13:51:47.141Z,28.76
2022-11-03T14:00:47.318Z,28.15
2022-11-03T14:06:02.117Z,27.91
2022-11-03T14:07:33.721Z,27.81
2022-11-03T14:09:05.298Z,27.69
2022-11-03T14:10:36.856Z,27.57
2022-11-03T14:12:27.128Z,27.52
2022-11-03T14:13:58.738Z,27.43
2022-11-03T14:15:30.439Z,27.37
2022-11-03T14:17:02.110Z,27.27
2022-11-03T14:18:33.891Z,27.20
2022-11-03T14:20:05.742Z,27.12
2022-11-03T14:21:42.913Z,27.00
2022-11-03T14:23:14.480Z,26.89
2022-11-03T14:24:46.075Z,26.81
2022-11-03T14:26:33.013Z,26.73
2022-11-03T14:28:09.373Z,26.62
2022-11-03T14:29:41.200Z,26.55
2022-11-03T14:31:12.921Z,26.47
2022-11-03T14:32:44.592Z,26.28
2022-11-03T14:34:16.229Z,26.00
2022-11-03T14:35:49.330Z,25.82
2022-11-03T14:37:20.976Z,25.67
2022-11-03T14:38:52.701Z,25.53
2022-11-03T14:40:42.819Z,25.41
2022-11-03T14:42:17.379Z,25.27
2022-11-03T14:43:49.570Z,25.15
2022-11-03T14:45:21.666Z,25.12
2022-11-03T14:46:53.874Z,25.03
2022-11-03T14:48:25.398Z,24.96
2022-11-03T14:49:57.003Z,24.90
2022-11-03T14:51:29.162Z,24.86
2022-11-03T14:53:00.717Z,24.79
2022-11-03T14:54:32.301Z,24.70
2022-11-03T14:56:04.187Z,24.59
2022-11-03T14:57:35.823Z,24.49
2022-11-03T14:59:07.514Z,24.36
2022-11-03T15:00:39.083Z,24.28
2022-11-03T15:02:10.737Z,24.20
2022-11-03T15:03:42.647Z,24.12
2022-11-03T15:05:34.252Z,24.03
2022-11-03T15:07:06.596Z,23.98
2022-11-03T15:08:38.350Z,23.93
2022-11-03T15:10:10.051Z,23.88
2022-11-03T15:11:42.023Z,23.81
2022-11-03T15:13:13.771Z,23.74
2022-11-03T15:14:45.516Z,23.68
2022-11-03T15:16:17.117Z,23.62
2022-11-03T15:17:48.765Z,23.55
2022-11-03T15:19:20.357Z,23.49
2022-11-03T15:20:52.091Z,23.41
2022-11-03T15:26:08.024Z,22.98
2022-11-03T15:27:39.566Z,22.87
2022-11-03T15:29:11.175Z,22.78
2022-11-03T15:30:42.749Z,22.74
2022-11-03T15:32:15.419Z,22.70
2022-11-03T15:33:46.995Z,22.65
2022-11-03T15:35:18.703Z,22.63
2022-11-03T15:36:50.643Z,22.60
2022-11-03T15:38:22.240Z,22.57
2022-11-03T15:39:58.736Z,22.57
2022-11-03T15:41:31.700Z,22.54
2022-11-03T15:43:03.402Z,22.45
2022-11-03T15:44:35.273Z,22.38
2022-11-03T15:46:06.864Z,22.27
2022-11-03T15:47:39.426Z,22.16
2022-11-03T15:49:11.323Z,22.04
2022-11-03T15:50:43.188Z,21.94
2022-11-03T15:52:14.773Z,21.87
2022-11-03T15:53:46.902Z,21.79
2022-11-03T15:55:19.395Z,21.73
2022-11-03T15:56:50.955Z,21.69
2022-11-03T15:58:22.595Z,21.59
2022-11-03T15:59:57.737Z,21.49
2022-11-03T16:01:29.905Z,21.42
2022-11-03T16:03:02.252Z,21.40
2022-11-03T16:04:34.144Z,21.40
2022-11-03T16:06:05.871Z,21.47
2022-11-03T16:07:37.435Z,21.54
2022-11-03T16:09:09.696Z,21.54
2022-11-03T16:10:48.056Z,21.54
2022-11-03T16:12:24.378Z,21.45
2022-11-03T16:13:56.315Z,21.38
2022-11-03T16:15:27.834Z,21.28
2022-11-03T16:16:59.942Z,21.11
2022-11-03T16:18:31.533Z,20.96
2022-11-03T16:20:03.145Z,20.83
2022-11-03T16:21:35.281Z,20.73
2022-11-03T16:23:06.876Z,20.66
2022-11-03T16:24:38.632Z,20.60
2022-11-03T16:26:10.232Z,20.53
2022-11-03T16:27:42.100Z,20.52
2022-11-03T16:29:13.662Z,20.47
2022-11-03T16:30:49.826Z,20.38
2022-11-03T16:32:25.679Z,20.27
2022-11-03T16:33:58.566Z,20.17
2022-11-03T16:35:30.431Z,20.11
2022-11-03T16:37:02.023Z,20.08
2022-11-03T16:38:33.672Z,20.07
2022-11-03T16:40:06.007Z,20.03
2022-11-03T16:41:37.899Z,19.99
2022-11-03T16:43:09.732Z,19.94
2022-11-03T16:44:41.370Z,19.91
2022-11-03T16:46:13.796Z,19.89
2022-11-03T16:47:46.170Z,19.88
2022-11-03T16:49:18.072Z,19.81
2022-11-03T16:50:52.853Z,19.76
2022-11-03T16:52:27.387Z,19.70
2022-11-03T16:54:00.028Z,19.69
2022-11-03T16:55:31.961Z,19.66
2022-11-03T16:57:03.897Z,19.65
2022-11-03T16:58:35.967Z,19.63
2022-11-03T17:00:09.122Z,19.58
2022-11-03T17:01:41.516Z,19.56
2022-11-03T17:03:13.894Z,19.54
2022-11-03T17:04:46.012Z,19.51
2022-11-03T17:06:18.125Z,19.50
2022-11-03T17:07:53.620Z,19.51
2022-11-03T17:09:27.191Z,19.46
2022-11-03T17:10:59.336Z,19.43
2022-11-03T17:12:31.405Z,19.43
2022-11-03T17:14:04.201Z,19.40
2022-11-03T17:15:36.211Z,19.37
2022-11-03T17:17:08.435Z,19.39
2022-11-03T17:18:40.571Z,19.39
2022-11-03T17:20:13.310Z,19.39
2022-11-03T17:21:45.382Z,19.38
2022-11-03T17:23:17.109Z,19.36
2022-11-03T17:24:48.975Z,19.31
2022-11-03T17:26:22.218Z,19.30
2022-11-03T17:27:57.783Z,19.30
2022-11-03T17:29:32.329Z,19.26
2022-11-03T17:31:05.005Z,19.21
2022-11-03T17:32:37.642Z,19.19
2022-11-03T17:34:12.508Z,19.17
2022-11-03T17:35:45.906Z,19.12
2022-11-03T17:37:17.677Z,19.12
2022-11-03T17:38:49.858Z,19.10
2022-11-03T17:40:22.147Z,19.09
2022-11-03T17:41:54.182Z,19.07
2022-11-03T17:43:28.551Z,19.03
2022-11-03T17:45:01.180Z,19.02
2022-11-03T17:46:32.990Z,18.99
2022-11-03T17:48:06.180Z,19.03
2022-11-03T17:49:38.262Z,19.02
2022-11-03T17:51:12.435Z,18.98
2022-11-03T17:52:46.283Z,18.91
2022-11-03T17:54:18.377Z,18.87
2022-11-03T17:56:08.914Z,18.83
2022-11-03T17:57:42.326Z,18.80
2022-11-03T17:59:14.841Z,18.78
2022-11-03T18:00:46.418Z,18.73
2022-11-03T18:02:19.575Z,18.71
2022-11-03T18:03:52.310Z,18.69
2022-11-03T18:05:24.113Z,18.67
2022-11-03T18:06:55.775Z,18.69
2022-11-03T18:08:28.022Z,18.68
2022-11-03T18:09:59.803Z,18.67
2022-11-03T18:11:50.062Z,18.62
2022-11-03T18:13:23.181Z,18.61
2022-11-03T18:14:55.337Z,18.60
2022-11-03T18:16:26.820Z,18.60
2022-11-03T18:17:58.465Z,18.58
2022-11-03T18:19:30.262Z,18.57
2022-11-03T18:21:02.065Z,18.56
2022-11-03T18:22:33.822Z,18.53
2022-11-03T18:24:18.380Z,18.51
2022-11-03T18:25:50.722Z,18.49
2022-11-03T18:27:25.379Z,18.45
2022-11-03T18:28:57.847Z,18.42
2022-11-03T18:30:30.919Z,18.40
2022-11-03T18:32:03.978Z,18.43
2022-11-03T18:33:36.258Z,18.46
2022-11-03T18:35:10.795Z,18.49
2022-11-03T18:36:42.510Z,18.52
2022-11-03T18:38:14.873Z,18.58
2022-11-03T18:39:46.654Z,18.64
2022-11-03T18:41:39.291Z,18.68
2022-11-03T18:43:14.529Z,18.71
2022-11-03T18:44:46.854Z,18.73
2022-11-03T18:46:18.565Z,18.79
2022-11-03T18:47:50.247Z,18.86
2022-11-03T18:49:22.614Z,18.92
2022-11-03T18:50:55.741Z,18.96
2022-11-03T18:52:28.044Z,19.00
2022-11-03T18:53:59.974Z,18.99
2022-11-03T18:55:32.111Z,18.96
2022-11-03T18:57:04.399Z,18.92
2022-11-03T18:58:36.508Z,18.89
2022-11-03T19:00:15.583Z,18.83
2022-11-03T19:01:47.999Z,18.66
2022-11-03T19:03:20.635Z,18.48
2022-11-03T19:04:52.736Z,18.37
2022-11-03T19:06:24.611Z,18.25
2022-11-03T19:07:56.216Z,18.14
2022-11-03T19:09:28.283Z,18.10
2022-11-03T19:11:03.900Z,18.06
2022-11-03T19:12:38.981Z,18.05
2022-11-03T19:14:13.280Z,18.03
2022-11-03T19:15:45.017Z,18.03
2022-11-03T19:17:23.049Z,18.02
2022-11-03T19:18:55.501Z,17.98
2022-11-03T19:20:27.173Z,17.98
2022-11-03T19:21:58.816Z,18.00
2022-11-03T19:23:31.260Z,18.03
2022-11-03T19:25:02.907Z,18.03
2022-11-03T19:26:43.964Z,18.02
2022-11-03T19:28:16.930Z,18.01
2022-11-03T19:29:48.671Z,18.00
2022-11-03T19:31:38.702Z,18.03
2022-11-03T19:33:17.027Z,18.03
2022-11-03T19:34:49.444Z,18.07
2022-11-03T19:36:21.089Z,18.08
2022-11-03T19:38:00.203Z,18.10
2022-11-03T19:39:33.165Z,18.09
2022-11-03T19:41:23.312Z,18.04
2022-11-03T19:42:55.563Z,18.06
2022-11-03T19:44:27.414Z,18.03
2022-11-03T19:45:59.588Z,17.98
2022-11-03T19:47:35.104Z,17.93
2022-11-03T19:49:06.887Z,17.93
2022-11-03T19:50:38.485Z,17.92
2022-11-03T19:52:11.562Z,17.93
2022-11-03T19:53:47.135Z,17.97
2022-11-03T19:55:19.937Z,17.99
2022-11-03T19:56:52.353Z,18.01
2022-11-03T19:58:27.679Z,18.05
2022-11-03T19:59:59.628Z,18.09
2022-11-03T20:01:31.467Z,18.10
2022-11-03T20:03:03.460Z,18.07
2022-11-03T20:04:35.149Z,18.06
2022-11-03T20:06:07.003Z,18.10
2022-11-03T20:07:39.027Z,18.12
2022-11-03T20:09:12.571Z,18.16
2022-11-03T20:10:48.198Z,18.25
2022-11-03T20:12:20.098Z,18.30
2022-11-03T20:13:52.250Z,18.36
2022-11-03T20:15:23.981Z,18.38
2022-11-03T20:16:59.180Z,18.42
2022-11-03T20:18:30.895Z,18.43
2022-11-03T20:20:02.811Z,18.43
2022-11-03T20:21:34.915Z,18.41
2022-11-03T20:23:08.222Z,18.36
2022-11-03T20:24:40.056Z,18.31
2022-11-03T20:26:15.579Z,18.26
2022-11-03T20:27:47.271Z,18.23
2022-11-03T20:29:19.045Z,18.23
2022-11-03T20:30:51.112Z,18.21
2022-11-03T20:32:23.537Z,18.21
2022-11-03T20:33:55.380Z,18.21
2022-11-03T20:35:27.617Z,18.16
2022-11-03T20:37:04.406Z,18.08